Time;durP1;ratioP1;P1;durP2;ratioP2;P2;SDS_P1;SDS_P2;PMS_P1;PMS_P2;Temp;Humidity;BMP_temperature;BMP_pressure;BME280_temperature;BME280_humidity;BME280_pressure;Samples;Min_cycle;Max_cycle;Signal;HPM_P1;HPM_P2
2024/02/11 00:01:11;;;;;;;36.35;29.00;;;;;;;8.71;100.00;98519.25;5102026;28;20051;-73
2024/02/11 00:03:37;;;;;;;37.20;29.30;;;;;;;8.72;100.00;98521.00;5103274;28;20035;-72
2024/02/11 00:06:08;;;;;;;35.00;27.65;;;;;;;8.72;100.00;98528.91;5103530;28;20024;-73
2024/02/11 00:08:34;;;;;;;35.50;27.52;;;;;;;8.70;100.00;98529.84;5103841;28;20108;-73
2024/02/11 00:11:00;;;;;;;35.15;27.88;;;;;;;8.69;100.00;98530.72;5103087;28;20111;-73
2024/02/11 00:13:26;;;;;;;34.90;27.27;;;;;;;8.70;100.00;98528.06;5104480;28;20031;-73
2024/02/11 00:15:51;;;;;;;36.97;27.85;;;;;;;8.69;100.00;98530.72;5083742;28;20101;-73
2024/02/11 00:18:22;;;;;;;35.83;28.58;;;;;;;8.67;100.00;98527.28;5105221;28;20586;-73
2024/02/11 00:20:47;;;;;;;36.80;29.13;;;;;;;8.70;100.00;98527.19;5101500;28;20048;-73
2024/02/11 00:23:12;;;;;;;36.10;28.30;;;;;;;8.70;100.00;98517.53;5104840;28;20355;-76
2024/02/11 00:25:39;;;;;;;36.42;29.17;;;;;;;8.70;100.00;98528.06;5102651;28;20031;-74
2024/02/11 00:28:06;;;;;;;35.33;28.25;;;;;;;8.69;100.00;98515.81;5075560;28;20051;-76
2024/02/11 00:30:32;;;;;;;34.20;27.95;;;;;;;8.68;100.00;98510.59;5085886;28;20390;-75
2024/02/11 00:32:58;;;;;;;33.75;26.38;;;;;;;8.70;100.00;98516.66;5101302;28;20034;-76
2024/02/11 00:35:24;;;;;;;35.55;27.73;;;;;;;8.69;100.00;98510.56;5102179;28;20074;-76
2024/02/11 00:37:49;;;;;;;34.80;26.98;;;;;;;8.66;100.00;98507.09;5104865;28;20059;-76
2024/02/11 00:40:16;;;;;;;33.90;26.95;;;;;;;8.64;100.00;98509.78;5083225;28;20058;-75
2024/02/11 00:42:42;;;;;;;34.38;27.50;;;;;;;8.61;100.00;98515.13;5103906;28;20107;-76
2024/02/11 00:45:09;;;;;;;34.38;26.60;;;;;;;8.56;100.00;98511.72;5104366;28;20114;-76
2024/02/11 00:47:35;;;;;;;34.22;26.70;;;;;;;8.59;100.00;98502.91;5101630;28;20092;-76
2024/02/11 00:50:01;;;;;;;33.85;26.80;;;;;;;8.59;100.00;98505.53;5103654;28;20027;-76
2024/02/11 00:52:26;;;;;;;33.20;25.92;;;;;;;8.59;100.00;98503.78;5103065;28;20027;-76
2024/02/11 00:54:51;;;;;;;34.40;26.50;;;;;;;8.59;100.00;98506.41;5084471;28;20274;-75
2024/02/11 00:57:19;;;;;;;34.35;27.27;;;;;;;8.59;100.00;98501.16;5104228;28;20467;-76
2024/02/11 00:59:45;;;;;;;37.53;28.35;;;;;;;8.59;100.00;98509.06;5101636;28;20416;-75
2024/02/11 01:02:11;;;;;;;35.17;27.90;;;;;;;8.61;100.00;98504.59;5104736;28;20023;-74
2024/02/11 01:04:38;;;;;;;35.40;27.60;;;;;;;8.55;100.00;98507.38;5103452;28;20115;-75
2024/02/11 01:07:05;;;;;;;36.33;28.25;;;;;;;8.53;100.00;98503.91;5083330;28;20105;-74
2024/02/11 01:09:34;;;;;;;34.78;27.35;;;;;;;8.56;100.00;98503.81;5104011;28;20535;-74
2024/02/11 01:12:00;;;;;;;35.58;28.20;;;;;;;8.58;100.00;98498.53;5101629;28;20505;-74
2024/02/11 01:14:25;;;;;;;36.53;28.85;;;;;;;8.58;100.00;98517.84;5103260;28;20115;-74
2024/02/11 01:16:51;;;;;;;36.47;28.50;;;;;;;8.57;100.00;98509.97;5102767;28;20509;-73
2024/02/11 01:19:16;;;;;;;35.75;29.02;;;;;;;8.57;100.00;98510.84;5101908;28;20502;-74
2024/02/11 01:21:41;;;;;;;36.85;29.50;;;;;;;8.59;100.00;98503.78;5103853;28;20401;-75
2024/02/11 01:24:07;;;;;;;36.35;29.27;;;;;;;8.58;100.00;98501.16;5100855;28;20068;-74
2024/02/11 01:26:36;;;;;;;37.10;28.77;;;;;;;8.58;100.00;98511.69;5104184;28;20024;-74
2024/02/11 01:29:03;;;;;;;37.17;28.90;;;;;;;8.59;100.00;98506.41;5101379;28;20020;-75
2024/02/11 01:31:28;;;;;;;36.85;28.85;;;;;;;8.60;100.00;98504.63;5103323;28;20079;-74
2024/02/11 01:33:54;;;;;;;36.10;28.85;;;;;;;8.56;100.00;98503.81;5084478;28;20035;-75
2024/02/11 01:36:19;;;;;;;35.33;27.95;;;;;;;8.59;100.00;98509.06;5102132;28;20038;-74
2024/02/11 01:38:44;;;;;;;35.47;27.77;;;;;;;8.59;100.00;98516.94;5102873;28;20460;-76
2024/02/11 01:41:10;;;;;;;36.22;28.52;;;;;;;8.60;100.00;98505.50;5101388;28;20379;-76
2024/02/11 01:43:35;;;;;;;33.92;27.58;;;;;;;8.58;100.00;98509.06;5085992;28;20435;-76
2024/02/11 01:46:00;;;;;;;34.33;28.17;;;;;;;8.56;100.00;98506.47;5100540;28;20340;-76
2024/02/11 01:48:29;;;;;;;34.95;27.88;;;;;;;8.55;100.00;98500.34;5085470;28;20028;-74
2024/02/11 01:50:55;;;;;;;35.15;27.25;;;;;;;8.55;100.00;98502.13;5102213;28;20020;-75
2024/02/11 01:53:21;;;;;;;35.92;28.67;;;;;;;8.56;100.00;98503.81;5101967;28;20395;-76
2024/02/11 01:55:48;;;;;;;35.67;29.23;;;;;;;8.55;100.00;98507.38;5106883;28;20429;-76
2024/02/11 01:58:15;;;;;;;36.05;28.48;;;;;;;8.58;100.00;98506.41;5088089;28;20027;-76
2024/02/11 02:00:42;;;;;;;37.75;30.33;;;;;;;8.51;100.00;98496.03;5105613;28;20032;-76
2024/02/11 02:03:09;;;;;;;35.60;28.38;;;;;;;8.56;100.00;98503.81;5089131;28;20027;-76
2024/02/11 02:05:35;;;;;;;37.78;28.60;;;;;;;8.54;100.00;98495.97;5104615;28;20039;-76
2024/02/11 02:08:03;;;;;;;36.30;29.67;;;;;;;8.49;100.00;98494.34;5107786;28;20526;-76
2024/02/11 02:10:29;;;;;;;38.45;29.60;;;;;;;8.52;100.00;98496.94;5104279;28;20035;-75
2024/02/11 02:12:54;;;;;;;36.78;29.95;;;;;;;8.50;100.00;98494.34;5089087;28;20039;-76
2024/02/11 02:15:22;;;;;;;38.38;30.48;;;;;;;8.51;100.00;98497.81;5104881;28;20043;-76
2024/02/11 02:17:48;;;;;;;38.83;30.95;;;;;;;8.50;100.00;98493.47;5106564;28;20515;-73
2024/02/11 02:20:14;;;;;;;37.47;30.00;;;;;;;8.51;100.00;98484.66;5087310;28;20047;-73
2024/02/11 02:22:41;;;;;;;37.78;30.17;;;;;;;8.44;100.00;98477.78;5105277;28;20024;-73
2024/02/11 02:25:07;;;;;;;37.83;30.08;;;;;;;8.43;100.00;98476.94;5106862;28;20458;-73
2024/02/11 02:27:33;;;;;;;38.90;31.15;;;;;;;8.47;100.00;98477.75;5086165;28;20055;-73
2024/02/11 02:29:58;;;;;;;37.45;30.05;;;;;;;8.42;100.00;98474.31;5107406;28;20109;-72
2024/02/11 02:32:24;;;;;;;38.75;30.92;;;;;;;8.40;100.00;98470.84;5104227;28;20059;-73
2024/02/11 02:34:50;;;;;;;38.53;31.00;;;;;;;8.40;100.00;98469.06;5106207;28;20463;-73
2024/02/11 02:37:16;;;;;;;37.97;30.92;;;;;;;8.44;100.00;98477.78;5086833;28;20032;-73
2024/02/11 02:39:41;;;;;;;37.78;31.30;;;;;;;8.45;100.00;98474.28;5105122;28;20425;-73
2024/02/11 02:42:07;;;;;;;38.05;31.33;;;;;;;8.44;100.00;98476.03;5105730;28;20024;-73
2024/02/11 02:44:32;;;;;;;37.90;31.25;;;;;;;8.42;100.00;98475.19;5104118;28;20118;-73
2024/02/11 02:46:58;;;;;;;39.38;31.85;;;;;;;8.47;100.00;98472.47;5107315;28;20462;-73
2024/02/11 02:49:23;;;;;;;39.35;31.38;;;;;;;8.44;100.00;98472.50;5103719;28;20029;-73
2024/02/11 02:51:49;;;;;;;39.17;31.65;;;;;;;8.45;100.00;98471.66;5106455;28;20402;-73
2024/02/11 02:54:14;;;;;;;39.10;31.77;;;;;;;8.48;100.00;98474.22;5103805;28;20040;-75
2024/02/11 02:56:40;;;;;;;38.72;32.13;;;;;;;8.48;100.00;98474.22;5105591;28;20055;-75
2024/02/11 02:59:08;;;;;;;38.70;31.83;;;;;;;8.46;100.00;98481.25;5105162;28;20030;-75
2024/02/11 03:01:35;;;;;;;40.08;32.20;;;;;;;8.48;100.00;98476.84;5104754;28;20035;-75
2024/02/11 03:04:01;;;;;;;40.45;33.28;;;;;;;8.48;100.00;98474.22;5105504;28;20453;-75
2024/02/11 03:06:30;;;;;;;40.80;33.70;;;;;;;8.52;100.00;98476.72;5103177;28;20383;-75
2024/02/11 03:08:56;;;;;;;42.72;34.58;;;;;;;8.55;100.00;98481.91;5106448;28;20038;-75
2024/02/11 03:11:21;;;;;;;41.45;33.28;;;;;;;8.54;100.00;98481.94;5103018;28;20383;-75
2024/02/11 03:13:47;;;;;;;39.63;32.83;;;;;;;8.53;100.00;98480.22;5106344;28;20087;-75
2024/02/11 03:16:15;;;;;;;42.38;33.83;;;;;;;8.55;100.00;98476.63;5103753;28;20098;-75
2024/02/11 03:18:42;;;;;;;40.75;33.58;;;;;;;8.57;100.00;98479.22;5105215;28;20024;-75
2024/02/11 03:21:10;;;;;;;41.13;33.33;;;;;;;8.58;100.00;98480.97;5085668;28;20044;-75
2024/02/11 03:23:37;;;;;;;40.78;33.28;;;;;;;8.58;100.00;98469.56;5105156;28;20413;-74
2024/02/11 03:26:10;;;;;;;40.95;33.15;;;;;;;8.56;100.00;98472.22;5104237;28;20153;-74
2024/02/11 03:28:36;;;;;;;40.28;32.92;;;;;;;8.58;100.00;98474.81;5104965;28;20035;-75
2024/02/11 03:31:01;;;;;;;40.97;32.80;;;;;;;8.57;100.00;98473.97;5104587;28;20501;-74
2024/02/11 03:33:27;;;;;;;41.42;34.05;;;;;;;8.59;100.00;98480.06;5103767;28;20028;-75
2024/02/11 03:35:52;;;;;;;41.65;33.20;;;;;;;8.58;100.00;98474.81;5105166;28;20032;-73
2024/02/11 03:38:18;;;;;;;42.17;33.67;;;;;;;8.58;100.00;98477.44;5103063;28;20032;-73
2024/02/11 03:40:43;;;;;;;41.90;34.10;;;;;;;8.59;100.00;98481.81;5087820;28;20028;-76
2024/02/11 03:43:11;;;;;;;41.78;34.05;;;;;;;8.60;100.00;98483.56;5102720;28;20119;-75
2024/02/11 03:45:37;;;;;;;41.30;33.58;;;;;;;8.60;100.00;98483.56;5105352;28;20023;-75
2024/02/11 03:48:03;;;;;;;43.67;34.28;;;;;;;8.55;100.00;98483.69;5085184;28;20114;-75
2024/02/11 03:50:28;;;;;;;42.00;34.20;;;;;;;8.57;100.00;98489.75;5085998;28;20040;-73
2024/02/11 03:52:53;;;;;;;42.85;34.53;;;;;;;8.58;100.00;98488.88;5104743;28;20460;-74
2024/02/11 03:55:19;;;;;;;41.83;33.75;;;;;;;8.57;100.00;98486.28;5102856;28;20386;-73
2024/02/11 03:57:44;;;;;;;44.05;34.40;;;;;;;8.57;100.00;98489.75;5106033;28;20055;-73
2024/02/11 04:00:17;;;;;;;44.50;34.67;;;;;;;8.53;100.00;98489.00;5102103;28;20035;-74
2024/02/11 04:02:42;;;;;;;43.33;34.80;;;;;;;8.53;100.00;98494.25;5102302;28;20375;-73
2024/02/11 04:05:12;;;;;;;45.05;35.13;;;;;;;8.51;100.00;98495.19;5105332;28;20034;-73
2024/02/11 04:07:39;;;;;;;46.53;35.85;;;;;;;8.52;100.00;98503.06;5102667;28;20027;-75
2024/02/11 04:10:17;;;;;;;50.67;37.33;;;;;;;8.55;100.00;98499.50;5104749;28;20028;-74
2024/02/11 04:12:42;;;;;;;49.83;36.30;;;;;;;8.54;100.00;98505.66;5102056;28;20035;-76
2024/02/11 04:15:09;;;;;;;51.08;37.80;;;;;;;8.52;100.00;98510.09;5105098;28;20032;-76
2024/02/11 04:17:36;;;;;;;51.08;37.92;;;;;;;8.51;100.00;98514.47;5101691;28;20118;-76
2024/02/11 04:20:02;;;;;;;55.83;39.92;;;;;;;8.50;100.00;98503.97;5085803;28;20048;-75
2024/02/11 04:22:27;;;;;;;55.53;39.63;;;;;;;8.48;100.00;98508.44;5103156;28;20547;-76
2024/02/11 04:24:54;;;;;;;54.75;39.03;;;;;;;8.52;100.00;98507.47;5103097;28;20032;-76
2024/02/11 04:27:23;;;;;;;55.70;38.63;;;;;;;8.47;100.00;98510.19;5103984;28;20493;-77
2024/02/11 04:29:48;;;;;;;50.33;35.60;;;;;;;8.47;100.00;98509.34;5102867;28;20032;-76
2024/02/11 04:32:14;;;;;;;50.97;34.35;;;;;;;8.47;100.00;98512.81;5104745;28;20481;-75
2024/02/11 04:34:44;;;;;;;52.33;36.05;;;;;;;8.45;100.00;98516.41;5101236;28;20031;-75
2024/02/11 04:37:12;;;;;;;48.92;33.88;;;;;;;8.47;100.00;98518.09;5101707;28;20032;-75
2024/02/11 04:39:38;;;;;;;48.25;33.42;;;;;;;8.45;100.00;98512.00;5101390;28;20432;-74
2024/02/11 04:42:03;;;;;;;46.95;32.28;;;;;;;8.45;100.00;98524.31;5104314;28;20073;-75
2024/02/11 04:44:31;;;;;;;49.53;33.83;;;;;;;8.47;100.00;98530.41;5102849;28;20140;-74
2024/02/11 04:46:57;;;;;;;48.88;33.65;;;;;;;8.43;100.00;98526.06;5103164;28;20028;-74
2024/02/11 04:49:22;;;;;;;50.70;33.28;;;;;;;8.44;100.00;98533.97;5103593;28;20034;-75
2024/02/11 04:51:49;;;;;;;45.40;30.45;;;;;;;8.48;100.00;98532.13;5083814;28;20024;-74
2024/02/11 04:54:14;;;;;;;44.75;29.48;;;;;;;8.47;100.00;98538.28;5104243;28;20040;-75
2024/02/11 04:56:41;;;;;;;36.63;21.23;;;;;;;8.47;100.00;98541.78;5083397;28;20035;-74
2024/02/11 04:59:07;;;;;;;32.17;19.40;;;;;;;8.44;100.00;98549.75;5104573;28;20433;-75
2024/02/11 05:01:33;;;;;;;31.25;16.85;;;;;;;8.39;100.00;98559.50;5101827;28;20393;-74
2024/02/11 05:04:01;;;;;;;29.67;16.02;;;;;;;8.30;100.00;98552.69;5103348;28;20032;-74
2024/02/11 05:06:27;;;;;;;27.48;13.98;;;;;;;8.27;100.00;98562.41;5085216;28;20032;-74
2024/02/11 05:08:55;;;;;;;29.85;14.85;;;;;;;8.19;100.00;98571.34;5069708;28;20501;-74
2024/02/11 05:11:21;;;;;;;30.88;15.02;;;;;;;8.08;100.00;98575.13;5103664;28;20043;-75
2024/02/11 05:13:47;;;;;;;34.80;16.17;;;;;;;7.93;100.00;98577.16;5101535;28;20483;-75
2024/02/11 05:16:15;;;;;;;35.75;16.85;;;;;;;7.84;100.00;98577.38;5104455;28;20110;-75
2024/02/11 05:18:42;;;;;;;36.60;16.38;;;;;;;7.79;100.00;98584.47;5101005;28;20077;-75
2024/02/11 05:21:09;;;;;;;38.13;16.83;;;;;;;7.71;100.00;98592.53;5086465;28;20055;-75
2024/02/11 05:23:35;;;;;;;39.58;17.30;;;;;;;7.62;100.00;98600.59;5101313;28;20039;-76
2024/02/11 05:26:02;;;;;;;40.92;18.13;;;;;;;7.60;100.00;98594.50;5103689;28;20032;-76
2024/02/11 05:28:29;;;;;;;39.85;19.10;;;;;;;7.54;100.00;98615.66;5103364;28;20027;-76
2024/02/11 05:30:55;;;;;;;39.75;19.73;;;;;;;7.42;100.00;98608.88;5106459;28;20039;-76
2024/02/11 05:33:20;;;;;;;40.65;21.17;;;;;;;7.38;100.00;98609.81;5106682;28;20032;-72
2024/02/11 05:35:48;;;;;;;42.00;22.08;;;;;;;7.31;100.00;98619.56;5106019;28;20047;-76
2024/02/11 05:38:14;;;;;;;41.95;23.30;;;;;;;7.27;100.00;98623.16;5107623;28;20031;-75
2024/02/11 05:40:41;;;;;;;44.22;24.77;;;;;;;7.23;100.00;98638.09;5104837;28;20036;-75
2024/02/11 05:43:08;;;;;;;43.67;26.85;;;;;;;7.07;100.00;98632.22;5108415;28;20032;-75
2024/02/11 05:45:36;;;;;;;41.03;26.55;;;;;;;6.92;100.00;98648.25;5104623;28;20506;-76
2024/02/11 05:48:01;;;;;;;44.47;27.55;;;;;;;6.75;100.00;98638.00;5089496;28;20019;-76
2024/02/11 05:50:27;;;;;;;45.60;30.17;;;;;;;6.73;100.00;98645.03;5105793;28;20031;-76
2024/02/11 05:52:56;;;;;;;46.25;29.42;;;;;;;6.66;100.00;98653.91;5106381;28;20097;-76
2024/02/11 05:55:22;;;;;;;52.40;31.52;;;;;;;6.62;100.00;98648.66;5087966;28;20574;-76
2024/02/11 05:57:49;;;;;;;48.55;31.50;;;;;;;6.59;100.00;98648.72;5105861;28;20028;-76
2024/02/11 06:00:19;;;;;;;49.28;31.83;;;;;;;6.60;100.00;98660.09;5107187;28;20385;-76
2024/02/11 06:02:46;;;;;;;46.72;28.67;;;;;;;6.55;100.00;98660.19;5105097;28;20028;-75
2024/02/11 06:05:13;;;;;;;45.63;27.92;;;;;;;6.53;100.00;98668.97;5107645;28;20023;-76
2024/02/11 06:07:45;;;;;;;43.03;25.30;;;;;;;6.51;100.00;98668.97;5104345;28;20020;-76
2024/02/11 06:10:12;;;;;;;38.58;22.75;;;;;;;6.50;100.00;98675.09;5104475;28;20449;-76
2024/02/11 06:12:39;;;;;;;40.47;22.60;;;;;;;6.49;100.00;98675.13;5107814;28;20028;-74
2024/02/11 06:15:07;;;;;;;40.05;22.20;;;;;;;6.45;100.00;98675.19;5104581;28;20059;-76
2024/02/11 06:17:33;;;;;;;37.38;19.65;;;;;;;6.40;100.00;98670.88;5089189;28;20114;-76
2024/02/11 06:19:59;;;;;;;37.10;18.85;;;;;;;6.36;100.00;98669.16;5104391;28;20048;-76
2024/02/11 06:22:25;;;;;;;35.70;17.85;;;;;;;6.34;100.00;98676.22;5088370;28;20067;-76
2024/02/11 06:24:51;;;;;;;36.65;18.13;;;;;;;6.32;100.00;98686.72;5087624;28;20474;-73
2024/02/11 06:27:19;;;;;;;35.45;17.95;;;;;;;6.29;100.00;98686.75;5107885;28;20055;-76
2024/02/11 06:29:46;;;;;;;35.40;16.55;;;;;;;6.27;100.00;98697.25;5106653;28;20030;-75
2024/02/11 06:32:11;;;;;;;33.78;16.00;;;;;;;6.24;100.00;98692.06;5104139;28;20479;-74
2024/02/11 06:34:38;;;;;;;32.42;15.90;;;;;;;6.23;100.00;98710.44;5089198;28;20046;-75
2024/02/11 06:37:03;;;;;;;33.03;16.00;;;;;;;6.21;100.00;98712.22;5104011;28;20026;-75
2024/02/11 06:39:29;;;;;;;32.55;15.75;;;;;;;6.21;100.00;98705.22;5106076;28;20040;-75
2024/02/11 06:41:56;;;;;;;31.92;14.35;;;;;;;6.19;100.00;98714.88;5086355;28;20027;-72
2024/02/11 06:44:26;;;;;;;32.13;14.45;;;;;;;6.18;100.00;98720.13;5105488;28;20115;-74
2024/02/11 06:46:55;;;;;;;30.90;14.25;;;;;;;6.16;100.00;98719.28;5105190;28;20031;-75
2024/02/11 06:49:23;;;;;;;30.38;13.77;;;;;;;6.14;100.00;98721.06;5105052;28;20091;-75
2024/02/11 06:51:51;;;;;;;30.75;13.38;;;;;;;6.18;100.00;98734.13;5088143;28;20024;-76
2024/02/11 06:54:21;;;;;;;30.25;13.02;;;;;;;6.15;100.00;98742.03;5086185;28;20085;-75
2024/02/11 06:56:47;;;;;;;29.90;13.00;;;;;;;6.18;100.00;98741.97;5105714;28;20032;-75
2024/02/11 06:59:19;;;;;;;30.23;13.02;;;;;;;6.25;100.00;98761.16;5104050;28;20032;-75
2024/02/11 07:01:45;;;;;;;30.17;12.45;;;;;;;6.27;100.00;98765.47;5105987;28;20020;-75
2024/02/11 07:04:12;;;;;;;30.30;12.40;;;;;;;6.27;100.00;98770.72;5103303;28;20028;-75
2024/02/11 07:06:48;;;;;;;30.95;12.60;;;;;;;6.30;100.00;98774.22;5106863;28;20526;-75
2024/02/11 07:09:17;;;;;;;29.70;12.10;;;;;;;6.30;100.00;98776.84;5089896;28;20027;-76
2024/02/11 07:11:43;;;;;;;29.10;12.27;;;;;;;6.35;100.00;98781.16;5103634;28;20025;-74
2024/02/11 07:14:08;;;;;;;29.55;12.15;;;;;;;6.33;100.00;98788.16;5106400;28;20485;-74
2024/02/11 07:16:37;;;;;;;29.20;11.40;;;;;;;6.34;100.00;98789.06;5103210;28;20028;-74
2024/02/11 07:19:03;;;;;;;29.63;11.65;;;;;;;6.35;100.00;98790.78;5088116;28;20023;-75
2024/02/11 07:21:29;;;;;;;30.80;12.23;;;;;;;6.33;100.00;98796.03;5103347;28;20111;-75
2024/02/11 07:23:55;;;;;;;30.00;12.00;;;;;;;6.34;100.00;98796.94;5105260;28;20117;-72
2024/02/11 07:26:20;;;;;;;30.23;11.65;;;;;;;6.36;100.00;98792.53;5104615;28;20413;-72
2024/02/11 07:28:48;;;;;;;31.75;12.57;;;;;;;6.36;100.00;98795.16;5108012;28;20490;-72
2024/02/11 07:31:15;;;;;;;31.42;12.30;;;;;;;6.37;100.00;98800.38;5085087;28;20027;-72
2024/02/11 07:33:41;;;;;;;30.73;12.18;;;;;;;6.38;100.00;98804.75;5085339;28;20028;-72
2024/02/11 07:36:07;;;;;;;31.92;13.40;;;;;;;6.41;100.00;98806.47;5105586;28;20027;-72
2024/02/11 07:38:33;;;;;;;31.15;13.45;;;;;;;6.41;100.00;98803.84;5084443;28;20032;-72
2024/02/11 07:40:58;;;;;;;31.80;12.90;;;;;;;6.40;100.00;98808.22;5102555;28;20035;-72
2024/02/11 07:43:25;;;;;;;29.80;12.70;;;;;;;6.42;100.00;98813.44;5105625;28;20034;-72
2024/02/11 07:45:57;;;;;;;32.95;12.93;;;;;;;6.45;100.00;98816.03;5103561;28;20476;-72
2024/02/11 07:48:26;;;;;;;31.85;13.73;;;;;;;6.44;100.00;98823.03;5105470;28;20134;-72
2024/02/11 07:50:52;;;;;;;36.17;13.73;;;;;;;6.43;100.00;98828.31;5103227;28;20038;-72
2024/02/11 07:53:19;;;;;;;32.22;13.82;;;;;;;6.44;100.00;98824.81;5103440;28;20441;-73
2024/02/11 07:55:47;;;;;;;32.35;14.25;;;;;;;6.44;100.00;98825.66;5105409;28;20036;-74
2024/02/11 07:58:13;;;;;;;33.85;14.57;;;;;;;6.44;100.00;98838.78;5084363;28;20024;-74
2024/02/11 08:00:38;;;;;;;34.65;14.45;;;;;;;6.45;100.00;98835.28;5105021;28;20080;-74
2024/02/11 08:03:07;;;;;;;33.00;13.75;;;;;;;6.48;100.00;98836.13;5084843;28;20111;-74
2024/02/11 08:05:33;;;;;;;34.97;15.10;;;;;;;6.49;100.00;98837.88;5104543;28;20076;-74
2024/02/11 08:07:59;;;;;;;34.95;15.10;;;;;;;6.49;100.00;98838.75;5104044;28;20051;-74
2024/02/11 08:10:25;;;;;;;35.58;15.90;;;;;;;6.53;100.00;98834.34;5084821;28;20515;-74
2024/02/11 08:12:52;;;;;;;35.92;15.68;;;;;;;6.53;100.00;98834.34;5104871;28;20023;-75
2024/02/11 08:15:18;;;;;;;37.45;16.17;;;;;;;6.54;100.00;98841.31;5102130;28;20031;-74
2024/02/11 08:17:43;;;;;;;33.88;15.65;;;;;;;6.53;100.00;98839.59;5101321;28;20039;-72
2024/02/11 08:20:09;;;;;;;35.63;16.30;;;;;;;6.55;100.00;98843.94;5104986;28;20098;-75
2024/02/11 08:22:38;;;;;;;34.28;15.52;;;;;;;6.67;100.00;98847.28;5083298;28;20138;-73
2024/02/11 08:25:07;;;;;;;35.95;15.38;;;;;;;6.83;100.00;98856.75;5104754;28;20027;-75
2024/02/11 08:27:33;;;;;;;34.05;15.68;;;;;;;6.85;100.00;98856.72;5101803;28;20028;-75
2024/02/11 08:29:58;;;;;;;35.35;15.93;;;;;;;6.71;100.00;98870.88;5103880;28;20028;-75
2024/02/11 08:32:24;;;;;;;34.08;15.48;;;;;;;6.73;100.00;98870.88;5100664;28;20378;-76
2024/02/11 08:34:49;;;;;;;33.63;15.48;;;;;;;6.88;100.00;98873.31;5103284;28;20486;-75
2024/02/11 08:37:15;;;;;;;34.30;15.45;;;;;;;6.91;100.00;98870.63;5099816;27;20475;-76
2024/02/11 08:39:40;;;;;;;33.20;14.82;;;;;;;6.90;100.00;98871.56;5104071;28;20032;-77
2024/02/11 08:42:07;;;;;;;35.08;15.50;;;;;;;6.91;100.00;98875.91;5101693;28;20038;-76
2024/02/11 08:44:33;;;;;;;34.85;15.68;;;;;;;6.92;100.00;98876.78;5105007;28;20141;-77
2024/02/11 08:46:59;;;;;;;34.83;15.93;;;;;;;6.93;100.00;98879.38;5101454;28;20487;-77
2024/02/11 08:49:26;;;;;;;33.95;15.30;;;;;;;6.96;100.00;98887.22;5085992;28;20024;-77
2024/02/11 08:51:52;;;;;;;34.47;15.05;;;;;;;6.96;100.00;98883.72;5102627;28;20027;-73
2024/02/11 08:54:18;;;;;;;37.13;16.20;;;;;;;6.97;100.00;98888.97;5102907;28;20065;-73
2024/02/11 08:56:44;;;;;;;35.03;15.52;;;;;;;6.97;100.00;98893.34;5103507;28;20024;-73
2024/02/11 08:59:13;;;;;;;35.15;15.68;;;;;;;7.02;100.00;98891.53;5083755;28;20036;-73
